createdAt,value
2017-06-18T00:00:31.069Z,0
2017-06-18T00:01:31.062Z,0
2017-06-18T00:02:30.973Z,0
2017-06-18T00:03:30.983Z,0
2017-06-18T00:04:31.063Z,0
2017-06-18T00:05:31.074Z,0
2017-06-18T00:06:30.982Z,0
2017-06-18T00:07:31.073Z,0
2017-06-18T00:08:31.051Z,0
2017-06-18T00:09:31.050Z,0
2017-06-18T00:10:31.053Z,0
2017-06-18T00:11:31.052Z,0
2017-06-18T00:12:31.056Z,0
2017-06-18T00:13:31.052Z,0
2017-06-18T00:14:31.054Z,0
2017-06-18T00:15:31.054Z,0
2017-06-18T00:16:31.053Z,0
2017-06-18T00:17:31.057Z,0
2017-06-18T00:18:31.081Z,0
2017-06-18T00:19:31.125Z,0
2017-06-18T00:20:31.017Z,0
2017-06-18T00:21:31.089Z,0
2017-06-18T00:22:31.019Z,0
2017-06-18T00:23:31.092Z,0
2017-06-18T00:24:31.055Z,0
2017-06-18T00:25:31.010Z,0
2017-06-18T00:26:31.094Z,0
2017-06-18T00:27:31.092Z,0
2017-06-18T00:28:31.087Z,0
2017-06-18T00:29:31.057Z,0
2017-06-18T00:30:31.096Z,0
2017-06-18T00:31:31.008Z,0
2017-06-18T00:32:31.007Z,0
2017-06-18T00:33:31.060Z,0
2017-06-18T00:34:31.058Z,0
2017-06-18T00:35:31.100Z,0
2017-06-18T00:36:31.006Z,0
2017-06-18T00:37:31.009Z,0
2017-06-18T00:38:31.065Z,0
2017-06-18T00:39:31.065Z,0
2017-06-18T00:40:31.064Z,0
2017-06-18T00:41:31.112Z,0
2017-06-18T00:42:31.070Z,0
2017-06-18T00:43:31.065Z,0
2017-06-18T00:44:31.069Z,0
2017-06-18T00:45:31.073Z,0
2017-06-18T00:46:31.074Z,0
2017-06-18T00:47:31.067Z,0
2017-06-18T00:48:31.073Z,0
2017-06-18T00:49:31.076Z,0
2017-06-18T00:50:31.072Z,0
2017-06-18T00:51:31.068Z,0
2017-06-18T00:52:31.075Z,0
2017-06-18T00:53:31.075Z,0
2017-06-18T00:54:31.047Z,0
2017-06-18T00:55:31.006Z,0
2017-06-18T00:56:31.010Z,0
2017-06-18T00:57:31.050Z,0
2017-06-18T00:58:31.008Z,0
2017-06-18T00:59:31.053Z,0
2017-06-18T01:00:31.049Z,0
2017-06-18T01:01:31.009Z,0
2017-06-18T01:02:31.049Z,0
2017-06-18T01:03:31.029Z,0
2017-06-18T01:04:31.103Z,0
2017-06-18T01:05:31.084Z,0
2017-06-18T01:06:31.113Z,0
2017-06-18T01:07:31.108Z,0
2017-06-18T01:08:31.120Z,0
2017-06-18T01:09:31.086Z,0
2017-06-18T01:10:31.034Z,0
2017-06-18T01:11:31.084Z,0
2017-06-18T01:12:31.114Z,0
2017-06-18T01:13:31.125Z,0
2017-06-18T01:14:31.101Z,0
2017-06-18T01:15:31.086Z,0
2017-06-18T01:16:31.112Z,0
2017-06-18T01:17:31.115Z,0
2017-06-18T01:18:31.116Z,0
2017-06-18T01:19:31.080Z,0
2017-06-18T01:20:31.036Z,0
2017-06-18T01:21:31.117Z,0
2017-06-18T01:22:31.123Z,0
2017-06-18T01:23:31.118Z,0
2017-06-18T01:24:31.091Z,0
2017-06-18T01:25:31.089Z,0
2017-06-18T01:26:31.090Z,0
2017-06-18T01:27:31.092Z,0
2017-06-18T01:28:31.096Z,0
2017-06-18T01:29:31.092Z,0
2017-06-18T01:30:31.091Z,0
2017-06-18T01:31:31.095Z,0
2017-06-18T01:32:31.097Z,0
2017-06-18T01:33:31.094Z,0
2017-06-18T01:34:31.099Z,0
2017-06-18T01:35:31.101Z,0
2017-06-18T01:36:31.099Z,0
2017-06-18T01:37:31.100Z,0
2017-06-18T01:38:31.098Z,0
2017-06-18T01:39:31.101Z,0
2017-06-18T01:40:31.101Z,0
2017-06-18T01:41:31.101Z,0
2017-06-18T01:42:31.100Z,0
2017-06-18T01:43:31.099Z,0
2017-06-18T01:44:31.129Z,0
2017-06-18T01:45:31.127Z,0
2017-06-18T01:46:31.155Z,0
2017-06-18T01:47:31.102Z,0
2017-06-18T01:48:31.139Z,0
2017-06-18T01:49:31.048Z,0
2017-06-18T01:50:31.133Z,0
2017-06-18T01:51:31.136Z,0
2017-06-18T01:52:31.105Z,0
2017-06-18T01:53:31.056Z,0
2017-06-18T01:54:31.103Z,0
2017-06-18T01:55:31.096Z,0
2017-06-18T01:56:31.102Z,0
2017-06-18T01:57:31.098Z,0
2017-06-18T01:58:31.099Z,0
2017-06-18T01:59:31.105Z,0
2017-06-18T02:00:31.105Z,0
2017-06-18T02:01:31.100Z,0
2017-06-18T02:02:31.105Z,0
2017-06-18T02:03:31.106Z,0
2017-06-18T02:04:31.132Z,0
2017-06-18T02:05:31.106Z,0
2017-06-18T02:06:31.108Z,0
2017-06-18T02:07:31.109Z,0
2017-06-18T02:08:31.106Z,0
2017-06-18T02:09:31.108Z,0
2017-06-18T02:10:31.086Z,0
2017-06-18T02:11:31.110Z,0
2017-06-18T02:12:31.112Z,0
2017-06-18T02:13:31.106Z,0
2017-06-18T02:14:31.111Z,0
2017-06-18T02:15:31.081Z,0
2017-06-18T02:16:31.136Z,0
2017-06-18T02:17:31.072Z,0
2017-06-18T02:18:31.143Z,0
2017-06-18T02:19:31.138Z,0
2017-06-18T02:20:31.126Z,0
2017-06-18T02:21:31.088Z,0
2017-06-18T02:22:31.070Z,0
2017-06-18T02:23:31.159Z,0
2017-06-18T02:24:31.065Z,0
2017-06-18T02:25:31.149Z,0
2017-06-18T02:26:31.074Z,0
2017-06-18T02:27:31.127Z,0
2017-06-18T02:28:31.163Z,0
2017-06-18T02:29:31.161Z,0
2017-06-18T02:30:31.149Z,0
2017-06-18T02:31:31.165Z,0
2017-06-18T02:32:31.163Z,0
2017-06-18T02:33:31.091Z,0
2017-06-18T02:34:31.080Z,0
2017-06-18T02:35:31.081Z,0
2017-06-18T02:36:31.178Z,0
2017-06-18T02:37:31.161Z,0
2017-06-18T02:38:31.124Z,0
2017-06-18T02:39:31.159Z,0
2017-06-18T02:40:31.168Z,0
2017-06-18T02:41:31.162Z,0
2017-06-18T02:42:31.172Z,0
2017-06-18T02:43:31.081Z,0
2017-06-18T02:44:31.161Z,0
2017-06-18T02:45:31.160Z,0
2017-06-18T02:46:31.072Z,0
2017-06-18T02:47:31.162Z,0
2017-06-18T02:48:31.161Z,0
2017-06-18T02:49:31.164Z,0
2017-06-18T02:50:31.077Z,0
2017-06-18T02:51:31.077Z,0
2017-06-18T02:52:31.074Z,0
2017-06-18T02:53:31.067Z,0
2017-06-18T02:54:31.179Z,0
2017-06-18T02:55:31.088Z,0
2017-06-18T02:56:31.156Z,0
2017-06-18T02:57:31.164Z,0
2017-06-18T02:58:31.170Z,0
2017-06-18T02:59:31.105Z,0
2017-06-18T03:00:31.090Z,0
2017-06-18T03:01:31.170Z,0
2017-06-18T03:02:31.173Z,0
2017-06-18T03:03:31.161Z,0
2017-06-18T03:04:31.094Z,0
2017-06-18T03:05:31.166Z,0
2017-06-18T03:06:31.174Z,0
2017-06-18T03:07:31.178Z,0
2017-06-18T03:08:31.175Z,0
2017-06-18T03:09:31.183Z,0
2017-06-18T03:10:31.092Z,0
2017-06-18T03:11:31.187Z,0
2017-06-18T03:12:31.177Z,0
2017-06-18T03:13:31.098Z,0
2017-06-18T03:14:31.170Z,0
2017-06-18T03:15:31.088Z,0
2017-06-18T03:16:31.171Z,0
2017-06-18T03:17:31.084Z,0
2017-06-18T03:18:31.177Z,0
2017-06-18T03:19:31.163Z,0
2017-06-18T03:20:31.134Z,0
2017-06-18T03:21:31.183Z,0
2017-06-18T03:22:31.179Z,0
2017-06-18T03:23:31.183Z,0
2017-06-18T03:24:31.193Z,0
2017-06-18T03:25:31.183Z,0
2017-06-18T03:26:31.195Z,0
2017-06-18T03:27:31.356Z,0
2017-06-18T03:28:31.194Z,0
2017-06-18T03:29:31.188Z,0
2017-06-18T03:30:31.159Z,0
2017-06-18T03:31:31.196Z,0
2017-06-18T03:32:31.187Z,0
2017-06-18T03:33:31.197Z,0
2017-06-18T03:34:31.188Z,0
2017-06-18T03:35:31.172Z,0
2017-06-18T03:36:31.128Z,0
2017-06-18T03:37:31.091Z,0
2017-06-18T03:38:31.176Z,0
2017-06-18T03:39:31.182Z,0
2017-06-18T03:40:31.195Z,0
2017-06-18T03:41:31.191Z,0
2017-06-18T03:42:31.156Z,0
2017-06-18T03:43:31.173Z,0
2017-06-18T03:44:31.159Z,0
2017-06-18T03:45:31.205Z,0
2017-06-18T03:46:31.204Z,0
2017-06-18T03:47:31.184Z,0
2017-06-18T03:48:31.164Z,0
2017-06-18T03:49:31.193Z,0
2017-06-18T03:50:31.203Z,0
2017-06-18T03:51:31.180Z,0
2017-06-18T03:52:31.166Z,0
2017-06-18T03:53:31.185Z,0
2017-06-18T03:54:31.170Z,0
2017-06-18T03:55:31.202Z,0
2017-06-18T03:56:31.204Z,0
2017-06-18T03:57:31.170Z,0
2017-06-18T03:58:31.197Z,14
2017-06-18T03:59:31.190Z,15
2017-06-18T04:00:31.203Z,18
2017-06-18T04:01:31.163Z,17
2017-06-18T04:02:31.192Z,19
2017-06-18T04:03:31.126Z,20
2017-06-18T04:04:31.211Z,21
2017-06-18T04:05:31.213Z,22
2017-06-18T04:06:31.209Z,23
2017-06-18T04:07:31.218Z,24
2017-06-18T04:08:31.254Z,25
2017-06-18T04:09:31.126Z,26
2017-06-18T04:10:31.193Z,27
2017-06-18T04:11:31.201Z,28
2017-06-18T04:12:31.124Z,31
2017-06-18T04:13:31.210Z,34
2017-06-18T04:14:31.209Z,36
2017-06-18T04:15:31.181Z,40
2017-06-18T04:16:31.180Z,41
2017-06-18T04:17:31.180Z,43
2017-06-18T04:18:31.207Z,45
2017-06-18T04:19:31.183Z,47
2017-06-18T04:20:31.184Z,50
2017-06-18T04:21:31.183Z,52
2017-06-18T04:22:31.187Z,54
2017-06-18T04:23:31.185Z,56
2017-06-18T04:24:31.232Z,56
2017-06-18T04:25:31.151Z,57
2017-06-18T04:26:31.206Z,59
2017-06-18T04:27:31.209Z,64
2017-06-18T04:28:31.215Z,68
2017-06-18T04:29:31.134Z,70
2017-06-18T04:30:31.143Z,73
2017-06-18T04:31:31.223Z,76
2017-06-18T04:32:31.144Z,79
2017-06-18T04:33:31.221Z,83
2017-06-18T04:34:31.253Z,87
2017-06-18T04:35:31.220Z,90
2017-06-18T04:36:31.209Z,90
2017-06-18T04:37:31.207Z,90
2017-06-18T04:38:31.210Z,90
2017-06-18T04:39:31.211Z,96
2017-06-18T04:40:31.210Z,97
2017-06-18T04:41:31.216Z,94
2017-06-18T04:42:31.224Z,90
2017-06-18T04:43:31.215Z,82
2017-06-18T04:44:31.214Z,80
2017-06-18T04:45:31.240Z,80
2017-06-18T04:46:31.145Z,79
2017-06-18T04:47:31.230Z,82
2017-06-18T04:48:31.215Z,83
2017-06-18T04:49:31.242Z,90
2017-06-18T04:50:31.234Z,95
2017-06-18T04:51:31.232Z,98
2017-06-18T04:52:31.232Z,99
2017-06-18T04:53:31.229Z,101
2017-06-18T04:54:31.216Z,99
2017-06-18T04:55:31.222Z,97
2017-06-18T04:56:31.218Z,97
2017-06-18T04:58:31.217Z,103
2017-06-18T04:59:31.301Z,106
2017-06-18T05:00:31.221Z,108
2017-06-18T05:01:31.219Z,107
2017-06-18T05:02:31.237Z,104
2017-06-18T05:03:31.325Z,100
2017-06-18T05:04:31.223Z,98
2017-06-18T05:05:31.247Z,97
2017-06-18T05:06:31.209Z,100
2017-06-18T05:07:31.209Z,106
2017-06-18T05:08:31.164Z,114
2017-06-18T05:09:31.166Z,122
2017-06-18T05:10:31.160Z,122
2017-06-18T05:11:31.328Z,131
2017-06-18T05:12:31.177Z,141
2017-06-18T05:13:31.161Z,143
2017-06-18T05:14:31.246Z,141
2017-06-18T05:15:31.212Z,143
2017-06-18T05:16:31.214Z,146
2017-06-18T05:17:31.216Z,152
2017-06-18T05:18:31.217Z,152
2017-06-18T05:19:31.217Z,152
2017-06-18T05:20:31.319Z,148
2017-06-18T05:21:31.216Z,146
2017-06-18T05:22:31.219Z,146
2017-06-18T05:23:31.216Z,140
2017-06-18T05:24:31.220Z,130
2017-06-18T05:25:31.238Z,123
2017-06-18T05:26:31.339Z,119
2017-06-18T05:27:31.230Z,114
2017-06-18T05:28:31.236Z,112
2017-06-18T05:29:31.234Z,111
2017-06-18T05:30:31.238Z,109
2017-06-18T05:31:31.349Z,103
2017-06-18T05:32:31.251Z,94
2017-06-18T05:33:31.238Z,79
2017-06-18T05:34:31.235Z,72
2017-06-18T05:35:31.254Z,66
2017-06-18T05:36:31.231Z,61
2017-06-18T05:37:31.254Z,67
2017-06-18T05:38:31.240Z,68
2017-06-18T05:39:31.239Z,70
2017-06-18T05:40:31.241Z,74
2017-06-18T05:41:31.324Z,75
2017-06-18T05:42:31.325Z,76
2017-06-18T05:43:31.238Z,76
2017-06-18T05:44:31.259Z,76
2017-06-18T05:45:31.217Z,76
2017-06-18T05:46:31.176Z,76
2017-06-18T05:47:31.226Z,76
2017-06-18T05:48:31.261Z,76
2017-06-18T05:49:31.261Z,76
2017-06-18T05:50:31.255Z,77
2017-06-18T05:51:31.264Z,76
2017-06-18T05:52:31.184Z,78
2017-06-18T05:53:31.242Z,78
2017-06-18T05:54:31.188Z,80
2017-06-18T05:55:31.231Z,81
2017-06-18T05:56:31.269Z,80
2017-06-18T05:57:31.181Z,68
2017-06-18T05:58:31.270Z,78
2017-06-18T05:59:31.268Z,80
2017-06-18T06:00:31.232Z,86
2017-06-18T06:01:31.233Z,91
2017-06-18T06:02:31.270Z,90
2017-06-18T06:03:31.269Z,94
2017-06-18T06:04:31.248Z,95
2017-06-18T06:05:31.276Z,95
2017-06-18T06:06:31.195Z,97
2017-06-18T06:07:31.242Z,101
2017-06-18T06:08:31.261Z,106
2017-06-18T06:09:31.272Z,112
2017-06-18T06:10:31.243Z,117
2017-06-18T06:11:31.197Z,125
2017-06-18T06:12:31.266Z,125
2017-06-18T06:13:31.283Z,129
2017-06-18T06:14:31.192Z,136
2017-06-18T06:15:31.190Z,169
2017-06-18T06:16:31.277Z,180
2017-06-18T06:17:31.292Z,180
2017-06-18T06:18:31.279Z,167
2017-06-18T06:19:31.262Z,165
2017-06-18T06:20:31.240Z,172
2017-06-18T06:21:31.273Z,165
2017-06-18T06:22:31.287Z,127
2017-06-18T06:23:31.193Z,142
2017-06-18T06:24:31.282Z,134
2017-06-18T06:25:31.251Z,136
2017-06-18T06:26:31.252Z,130
2017-06-18T06:27:31.251Z,108
2017-06-18T06:28:31.253Z,118
2017-06-18T06:29:31.255Z,119
2017-06-18T06:30:31.256Z,137
2017-06-18T06:31:31.258Z,137
2017-06-18T06:32:31.254Z,142
2017-06-18T06:33:31.261Z,209
2017-06-18T06:34:31.254Z,224
2017-06-18T06:35:31.201Z,256
2017-06-18T06:36:31.290Z,291
2017-06-18T06:37:31.294Z,322
2017-06-18T06:38:31.283Z,329
2017-06-18T06:39:31.289Z,344
2017-06-18T06:40:31.207Z,325
2017-06-18T06:41:31.295Z,322
2017-06-18T06:42:31.212Z,255
2017-06-18T06:43:31.209Z,247
2017-06-18T06:44:31.294Z,258
2017-06-18T06:45:31.279Z,306
2017-06-18T06:46:31.276Z,321
2017-06-18T06:47:31.278Z,343
2017-06-18T06:48:31.280Z,364
2017-06-18T06:49:31.276Z,370
2017-06-18T06:50:31.282Z,381
2017-06-18T06:51:31.291Z,388
2017-06-18T06:52:31.316Z,375
2017-06-18T06:53:31.282Z,389
2017-06-18T06:54:31.279Z,391
2017-06-18T06:55:31.280Z,398
2017-06-18T06:56:31.293Z,401
2017-06-18T06:57:31.281Z,399
2017-06-18T06:58:31.282Z,390
2017-06-18T06:59:31.205Z,387
2017-06-18T07:00:32.300Z,398
2017-06-18T07:01:31.300Z,396
2017-06-18T07:02:31.283Z,394
2017-06-18T07:03:31.286Z,389
2017-06-18T07:04:31.217Z,387
2017-06-18T07:05:31.278Z,380
2017-06-18T07:06:31.303Z,374
2017-06-18T07:07:31.301Z,368
2017-06-18T07:08:31.297Z,368
2017-06-18T07:09:31.306Z,354
2017-06-18T07:10:31.291Z,342
2017-06-18T07:11:31.302Z,333
2017-06-18T07:12:31.295Z,334
2017-06-18T07:13:31.303Z,342
2017-06-18T07:14:31.305Z,346
2017-06-18T07:15:31.307Z,350
2017-06-18T07:16:31.273Z,355
2017-06-18T07:17:31.293Z,361
2017-06-18T07:18:31.317Z,368
2017-06-18T07:19:31.298Z,370
2017-06-18T07:20:31.318Z,381
2017-06-18T07:21:31.235Z,405
2017-06-18T07:22:31.311Z,440
2017-06-18T07:23:31.319Z,649
2017-06-18T07:24:31.296Z,489
2017-06-18T07:25:31.324Z,468
2017-06-18T07:26:31.283Z,447
2017-06-18T07:27:31.318Z,454
2017-06-18T07:28:31.233Z,473
2017-06-18T07:29:31.305Z,523
2017-06-18T07:30:31.312Z,522
2017-06-18T07:31:31.324Z,595
2017-06-18T07:32:31.316Z,705
2017-06-18T07:33:31.325Z,723
2017-06-18T07:34:31.319Z,863
2017-06-18T07:35:31.244Z,693
2017-06-18T07:36:31.326Z,767
2017-06-18T07:37:31.317Z,660
2017-06-18T07:38:31.317Z,655
2017-06-18T07:39:31.289Z,699
2017-06-18T07:40:31.309Z,784
2017-06-18T07:41:31.309Z,548
2017-06-18T07:42:31.284Z,583
2017-06-18T07:43:31.320Z,635
2017-06-18T07:44:31.243Z,671
2017-06-18T07:45:31.259Z,819
2017-06-18T07:46:31.328Z,659
2017-06-18T07:47:31.332Z,714
2017-06-18T07:48:31.327Z,659
2017-06-18T07:49:31.301Z,683
2017-06-18T07:50:31.304Z,851
2017-06-18T07:51:31.291Z,874
2017-06-18T07:52:31.293Z,971
2017-06-18T07:53:31.325Z,959
2017-06-18T07:54:31.248Z,954
2017-06-18T07:55:31.330Z,901
2017-06-18T07:56:31.334Z,1003
2017-06-18T07:57:31.242Z,992
2017-06-18T07:58:31.239Z,962
2017-06-18T07:59:31.246Z,952
2017-06-18T08:00:31.271Z,1003
2017-06-18T08:01:31.238Z,1034
2017-06-18T08:02:31.240Z,1022
2017-06-18T08:03:31.326Z,1051
2017-06-18T08:04:31.241Z,1080
2017-06-18T08:05:31.247Z,1092
2017-06-18T08:06:31.306Z,1041
2017-06-18T08:07:31.307Z,1093
2017-06-18T08:08:31.308Z,1133
2017-06-18T08:09:31.309Z,1160
2017-06-18T08:10:31.307Z,1168
2017-06-18T08:11:31.309Z,1171
2017-06-18T08:12:31.311Z,991
2017-06-18T08:13:31.310Z,688
2017-06-18T08:14:31.413Z,571
2017-06-18T08:15:31.311Z,534
2017-06-18T08:16:31.316Z,642
2017-06-18T08:17:31.310Z,628
2017-06-18T08:18:31.357Z,539
2017-06-18T08:19:31.315Z,501
2017-06-18T08:20:31.316Z,491
2017-06-18T08:21:31.314Z,495
2017-06-18T08:22:31.319Z,513
2017-06-18T08:23:31.314Z,489
2017-06-18T08:24:31.316Z,467
2017-06-18T08:25:31.315Z,452
2017-06-18T08:26:31.355Z,451
2017-06-18T08:27:31.348Z,462
2017-06-18T08:28:31.342Z,443
2017-06-18T08:29:31.267Z,441
2017-06-18T08:30:31.353Z,438
2017-06-18T08:31:31.374Z,437
2017-06-18T08:32:31.347Z,440
2017-06-18T08:33:31.330Z,440
2017-06-18T08:34:31.351Z,425
2017-06-18T08:35:31.269Z,399
2017-06-18T08:36:31.277Z,395
2017-06-18T08:37:31.362Z,409
2017-06-18T08:38:32.375Z,416
2017-06-18T08:39:31.331Z,415
2017-06-18T08:40:31.354Z,440
2017-06-18T08:41:31.274Z,453
2017-06-18T08:42:31.361Z,438
2017-06-18T08:43:31.355Z,444
2017-06-18T08:44:31.358Z,438
2017-06-18T08:45:31.318Z,429
2017-06-18T08:46:31.258Z,425
2017-06-18T08:47:31.269Z,419
2017-06-18T08:48:31.249Z,423
2017-06-18T08:49:31.319Z,417
2017-06-18T08:50:31.305Z,418
2017-06-18T08:51:31.312Z,420
2017-06-18T08:52:31.252Z,415
2017-06-18T08:53:31.415Z,412
2017-06-18T08:54:31.297Z,410
2017-06-18T08:55:31.315Z,401
2017-06-18T08:56:31.281Z,410
2017-06-18T08:57:31.367Z,411
2017-06-18T08:58:31.278Z,408
2017-06-18T08:59:31.373Z,402
2017-06-18T09:00:31.325Z,398
2017-06-18T09:01:31.280Z,398
2017-06-18T09:02:31.347Z,398
2017-06-18T09:03:31.361Z,416
2017-06-18T09:04:31.289Z,427
2017-06-18T09:05:31.369Z,437
2017-06-18T09:06:31.371Z,485
2017-06-18T09:07:31.328Z,441
2017-06-18T09:08:31.346Z,429
2017-06-18T09:09:31.369Z,437
2017-06-18T09:10:31.372Z,451
2017-06-18T09:11:31.380Z,457
2017-06-18T09:12:31.348Z,465
2017-06-18T09:13:31.381Z,472
2017-06-18T09:14:31.372Z,483
2017-06-18T09:15:31.313Z,500
2017-06-18T09:16:31.352Z,520
2017-06-18T09:17:31.357Z,532
2017-06-18T09:18:31.358Z,508
2017-06-18T09:19:31.359Z,510
2017-06-18T09:20:31.358Z,533
2017-06-18T09:21:31.359Z,572
2017-06-18T09:22:31.359Z,685
2017-06-18T09:23:31.360Z,568
2017-06-18T09:24:31.357Z,524
2017-06-18T09:25:31.365Z,515
2017-06-18T09:26:31.286Z,528
2017-06-18T09:27:31.336Z,546
2017-06-18T09:28:31.323Z,606
2017-06-18T09:29:31.286Z,595
2017-06-18T09:30:31.286Z,657
2017-06-18T09:31:31.388Z,638
2017-06-18T09:32:31.273Z,626
2017-06-18T09:33:31.291Z,595
2017-06-18T09:34:31.324Z,617
2017-06-18T09:35:31.284Z,670
2017-06-18T09:36:31.296Z,619
2017-06-18T09:37:31.306Z,635
2017-06-18T09:38:31.384Z,1224
2017-06-18T09:39:31.308Z,709
2017-06-18T09:40:31.388Z,763
2017-06-18T09:41:31.389Z,765
2017-06-18T09:42:31.299Z,631
2017-06-18T09:43:31.385Z,627
2017-06-18T09:44:31.352Z,805
2017-06-18T09:45:31.395Z,682
2017-06-18T09:46:31.454Z,729
2017-06-18T09:47:31.371Z,670
2017-06-18T09:48:31.374Z,697
2017-06-18T09:49:31.373Z,669
2017-06-18T09:50:31.373Z,860
2017-06-18T09:51:31.375Z,675
2017-06-18T09:52:31.376Z,688
2017-06-18T09:53:31.373Z,648
2017-06-18T09:54:31.375Z,1376
2017-06-18T09:55:31.377Z,931
2017-06-18T09:56:31.373Z,816
2017-06-18T09:57:31.382Z,713
2017-06-18T09:58:31.377Z,738
2017-06-18T09:59:31.375Z,1094
2017-06-18T10:00:31.381Z,1088
2017-06-18T10:01:31.377Z,852
2017-06-18T10:02:31.380Z,745
2017-06-18T10:03:31.377Z,758
2017-06-18T10:04:31.345Z,708
2017-06-18T10:05:31.342Z,704
2017-06-18T10:06:31.318Z,695
2017-06-18T10:07:31.345Z,680
2017-06-18T10:08:31.353Z,784
2017-06-18T10:09:31.303Z,895
2017-06-18T10:10:31.302Z,667
2017-06-18T10:11:31.378Z,628
2017-06-18T10:12:31.301Z,614
2017-06-18T10:13:31.346Z,625
2017-06-18T10:14:31.384Z,632
2017-06-18T10:15:31.387Z,639
2017-06-18T10:16:31.388Z,640
2017-06-18T10:17:31.490Z,646
2017-06-18T10:18:31.390Z,643
2017-06-18T10:19:31.394Z,645
2017-06-18T10:20:31.391Z,660
2017-06-18T10:21:31.390Z,645
2017-06-18T10:22:31.391Z,646
2017-06-18T10:23:31.391Z,654
2017-06-18T10:24:31.393Z,650
2017-06-18T10:25:31.394Z,677
2017-06-18T10:26:31.397Z,693
2017-06-18T10:27:31.393Z,679
2017-06-18T10:28:31.398Z,701
2017-06-18T10:29:31.395Z,763
2017-06-18T10:30:31.396Z,726
2017-06-18T10:31:31.400Z,743
2017-06-18T10:32:31.400Z,772
2017-06-18T10:33:31.402Z,816
2017-06-18T10:34:31.399Z,712
2017-06-18T10:35:31.403Z,723
2017-06-18T10:36:31.403Z,756
2017-06-18T10:37:31.401Z,1159
2017-06-18T10:38:31.402Z,701
2017-06-18T10:39:31.403Z,687
2017-06-18T10:40:31.402Z,662
2017-06-18T10:41:31.406Z,662
2017-06-18T10:42:31.408Z,655
2017-06-18T10:43:31.433Z,654
2017-06-18T10:44:31.405Z,668
2017-06-18T10:45:31.409Z,655
2017-06-18T10:46:31.410Z,688
2017-06-18T10:47:31.411Z,679
2017-06-18T10:48:31.409Z,686
2017-06-18T10:49:31.410Z,702
2017-06-18T10:50:31.412Z,745
2017-06-18T10:51:31.414Z,883
2017-06-18T10:52:31.408Z,1195
2017-06-18T10:53:31.411Z,870
2017-06-18T10:54:31.344Z,858
2017-06-18T10:55:31.408Z,832
2017-06-18T10:56:31.431Z,770
2017-06-18T10:57:31.407Z,763
2017-06-18T10:58:31.407Z,842
2017-06-18T10:59:31.429Z,901
2017-06-18T11:00:31.350Z,953
2017-06-18T11:01:31.340Z,1305
2017-06-18T11:02:31.433Z,1476
2017-06-18T11:03:31.434Z,1429
2017-06-18T11:04:31.428Z,1428
2017-06-18T11:05:31.342Z,1294
2017-06-18T11:06:31.339Z,1381
2017-06-18T11:07:31.345Z,1208
2017-06-18T11:08:31.376Z,1102
2017-06-18T11:09:31.424Z,1353
2017-06-18T11:10:31.341Z,830
2017-06-18T11:11:31.426Z,801
2017-06-18T11:12:31.343Z,773
2017-06-18T11:13:31.399Z,1003
2017-06-18T11:14:31.348Z,1130
2017-06-18T11:15:31.331Z,1342
2017-06-18T11:16:31.388Z,1331
2017-06-18T11:17:31.336Z,698
2017-06-18T11:18:31.383Z,1250
2017-06-18T11:19:31.342Z,1221
2017-06-18T11:20:31.448Z,1205
2017-06-18T11:21:31.349Z,1177
2017-06-18T11:22:31.341Z,1180
2017-06-18T11:23:31.399Z,1213
2017-06-18T11:24:31.429Z,1207
2017-06-18T11:25:31.437Z,1201
2017-06-18T11:26:31.426Z,1182
2017-06-18T11:27:31.427Z,1226
2017-06-18T11:28:31.430Z,1254
2017-06-18T11:29:31.428Z,1166
2017-06-18T11:30:31.432Z,666
2017-06-18T11:31:31.430Z,797
2017-06-18T11:32:31.435Z,1360
2017-06-18T11:33:31.435Z,1290
2017-06-18T11:34:31.642Z,572
2017-06-18T11:35:31.365Z,516
2017-06-18T11:36:31.446Z,574
2017-06-18T11:37:31.369Z,1430
2017-06-18T11:38:31.373Z,801
2017-06-18T11:39:31.456Z,904
2017-06-18T11:40:31.449Z,684
2017-06-18T11:41:31.453Z,1259
2017-06-18T11:42:31.368Z,999
2017-06-18T11:43:31.456Z,601
2017-06-18T11:44:31.425Z,592
2017-06-18T11:45:31.431Z,604
2017-06-18T11:46:31.424Z,642
2017-06-18T11:47:31.428Z,683
2017-06-18T11:48:31.430Z,631
2017-06-18T11:49:31.425Z,645
2017-06-18T11:50:31.431Z,594
2017-06-18T11:51:31.428Z,617
2017-06-18T11:52:31.431Z,936
2017-06-18T11:53:31.430Z,611
2017-06-18T11:54:31.379Z,619
2017-06-18T11:55:31.384Z,834
2017-06-18T11:56:31.384Z,1432
2017-06-18T11:57:31.461Z,1446
2017-06-18T11:58:31.473Z,941
2017-06-18T11:59:31.467Z,779
2017-06-18T12:00:31.463Z,719
2017-06-18T12:01:31.384Z,759
2017-06-18T12:02:31.486Z,1367
2017-06-18T12:03:31.389Z,798
2017-06-18T12:04:31.451Z,1131
2017-06-18T12:05:31.446Z,569
2017-06-18T12:06:31.448Z,590
2017-06-18T12:07:31.447Z,568
2017-06-18T12:08:31.450Z,528
2017-06-18T12:09:31.449Z,519
2017-06-18T12:10:31.452Z,550
2017-06-18T12:11:31.450Z,539
2017-06-18T12:12:31.455Z,546
2017-06-18T12:13:31.459Z,565
2017-06-18T12:14:31.466Z,555
2017-06-18T12:15:31.477Z,524
2017-06-18T12:16:31.475Z,540
2017-06-18T12:17:31.478Z,934
2017-06-18T12:18:31.432Z,697
2017-06-18T12:19:31.504Z,608
2017-06-18T12:20:31.472Z,570
2017-06-18T12:21:31.477Z,511
2017-06-18T12:22:31.477Z,498
2017-06-18T12:23:31.473Z,502
2017-06-18T12:24:31.397Z,509
2017-06-18T12:25:31.485Z,520
2017-06-18T12:26:31.485Z,521
2017-06-18T12:27:31.480Z,521
2017-06-18T12:28:31.476Z,562
2017-06-18T12:29:31.456Z,548
2017-06-18T12:30:31.490Z,602
2017-06-18T12:31:31.479Z,641
2017-06-18T12:32:31.489Z,668
2017-06-18T12:33:31.489Z,580
2017-06-18T12:34:31.444Z,774
2017-06-18T12:35:31.461Z,485
2017-06-18T12:36:31.402Z,453
2017-06-18T12:37:31.403Z,460
2017-06-18T12:38:31.405Z,459
2017-06-18T12:39:31.534Z,497
2017-06-18T12:40:31.465Z,534
2017-06-18T12:41:31.402Z,769
2017-06-18T12:42:31.492Z,1289
2017-06-18T12:43:31.487Z,908
2017-06-18T12:44:31.448Z,1070
2017-06-18T12:46:31.446Z,1027
2017-06-18T12:47:31.487Z,1292
2017-06-18T12:48:31.407Z,1349
2017-06-18T12:49:31.488Z,1083
2017-06-18T12:50:31.414Z,1399
2017-06-18T12:51:31.407Z,1379
2017-06-18T12:52:31.486Z,696
2017-06-18T12:53:31.409Z,592
2017-06-18T12:54:31.490Z,517
2017-06-18T12:55:31.401Z,503
2017-06-18T12:56:31.430Z,496
2017-06-18T12:57:31.493Z,485
2017-06-18T12:58:31.492Z,513
2017-06-18T12:59:31.415Z,506
2017-06-18T13:00:31.497Z,458
2017-06-18T13:01:31.498Z,442
2017-06-18T13:02:31.491Z,441
2017-06-18T13:03:31.657Z,434
2017-06-18T13:04:31.503Z,417
2017-06-18T13:05:31.503Z,390
2017-06-18T13:06:31.510Z,372
2017-06-18T13:07:31.508Z,365
2017-06-18T13:08:31.505Z,374
2017-06-18T13:09:31.494Z,404
2017-06-18T13:10:31.505Z,456
2017-06-18T13:11:31.509Z,524
2017-06-18T13:12:31.509Z,1411
2017-06-18T13:13:31.420Z,773
2017-06-18T13:14:31.462Z,711
2017-06-18T13:15:31.508Z,706
2017-06-18T13:16:31.425Z,699
2017-06-18T13:17:31.508Z,659
2017-06-18T13:18:31.507Z,673
2017-06-18T13:19:31.472Z,562
2017-06-18T13:20:31.428Z,533
2017-06-18T13:21:31.487Z,529
2017-06-18T13:22:31.517Z,528
2017-06-18T13:23:31.473Z,578
2017-06-18T13:24:31.472Z,560
2017-06-18T13:25:31.490Z,507
2017-06-18T13:26:31.521Z,484
2017-06-18T13:27:31.512Z,466
2017-06-18T13:28:31.511Z,452
2017-06-18T13:29:31.515Z,444
2017-06-18T13:30:31.518Z,438
2017-06-18T13:31:31.429Z,403
2017-06-18T13:32:31.520Z,396
2017-06-18T13:33:31.512Z,408
2017-06-18T13:34:31.516Z,414
2017-06-18T13:35:31.469Z,437
2017-06-18T13:36:31.501Z,420
2017-06-18T13:37:31.474Z,423
2017-06-18T13:38:31.412Z,459
2017-06-18T13:39:31.411Z,643
2017-06-18T13:40:31.419Z,1339
2017-06-18T13:41:31.468Z,729
2017-06-18T13:42:31.458Z,1283
2017-06-18T13:43:31.426Z,899
2017-06-18T13:45:31.476Z,679
2017-06-18T13:46:31.491Z,577
2017-06-18T13:47:31.490Z,519
2017-06-18T13:48:31.493Z,461
2017-06-18T13:49:31.493Z,448
2017-06-18T13:50:31.491Z,448
2017-06-18T13:51:31.494Z,441
2017-06-18T13:52:31.494Z,432
2017-06-18T13:53:31.494Z,643
2017-06-18T13:54:31.493Z,436
2017-06-18T13:55:31.495Z,441
2017-06-18T13:56:31.497Z,436
2017-06-18T13:57:31.498Z,389
2017-06-18T13:58:31.496Z,377
2017-06-18T13:59:31.494Z,347
2017-06-18T14:00:31.500Z,332
2017-06-18T14:01:31.499Z,305
2017-06-18T14:02:31.500Z,281
2017-06-18T14:03:31.502Z,266
2017-06-18T14:04:31.497Z,262
2017-06-18T14:05:31.529Z,271
2017-06-18T14:06:31.494Z,284